sensor_id;sensor_type;location;lat;lon;timestamp;pressure;altitude;pressure_sealevel;temperature;humidity
21728;BME280;11026;50.560;17.852;2023-02-14T00:02:21;101517.44;;;4.27;100.00
21728;BME280;11026;50.560;17.852;2023-02-14T00:04:49;101513.06;;;4.27;100.00
21728;BME280;11026;50.560;17.852;2023-02-14T00:07:23;101504.28;;;4.22;100.00
21728;BME280;11026;50.560;17.852;2023-02-14T00:09:51;101506.97;;;4.28;100.00
21728;BME280;11026;50.560;17.852;2023-02-14T00:12:19;101503.44;;;4.25;100.00
21728;BME280;11026;50.560;17.852;2023-02-14T00:14:46;101507.81;;;4.24;100.00
21728;BME280;11026;50.560;17.852;2023-02-14T00:17:32;101509.47;;;4.19;100.00
21728;BME280;11026;50.560;17.852;2023-02-14T00:20:01;101507.63;;;4.12;100.00
21728;BME280;11026;50.560;17.852;2023-02-14T00:22:28;101510.25;;;4.12;100.00
21728;BME280;11026;50.560;17.852;2023-02-14T00:24:57;101515.47;;;4.10;100.00
21728;BME280;11026;50.560;17.852;2023-02-14T00:27:24;101514.59;;;4.11;100.00
21728;BME280;11026;50.560;17.852;2023-02-14T00:29:52;101509.16;;;3.98;100.00
21728;BME280;11026;50.560;17.852;2023-02-14T00:32:20;101512.88;;;4.12;100.00
21728;BME280;11026;50.560;17.852;2023-02-14T00:34:48;101517.19;;;4.08;100.00
21728;BME280;11026;50.560;17.852;2023-02-14T00:37:15;101514.75;;;4.21;100.00
21728;BME280;11026;50.560;17.852;2023-02-14T00:39:44;101512.94;;;4.18;100.00
21728;BME280;11026;50.560;17.852;2023-02-14T00:42:11;101514.63;;;4.14;100.00
21728;BME280;11026;50.560;17.852;2023-02-14T00:44:40;101518.13;;;4.13;100.00
21728;BME280;11026;50.560;17.852;2023-02-14T00:47:07;101515.41;;;4.07;100.00
21728;BME280;11026;50.560;17.852;2023-02-14T00:49:34;101523.38;;;4.15;100.00
21728;BME280;11026;50.560;17.852;2023-02-14T00:52:02;101518.53;;;3.82;100.00
21728;BME280;11026;50.560;17.852;2023-02-14T00:54:29;101516.72;;;3.78;100.00
21728;BME280;11026;50.560;17.852;2023-02-14T00:57:03;101521.22;;;3.85;100.00
21728;BME280;11026;50.560;17.852;2023-02-14T00:59:30;101519.53;;;3.91;100.00
21728;BME280;11026;50.560;17.852;2023-02-14T01:01:59;101521.28;;;3.89;100.00
21728;BME280;11026;50.560;17.852;2023-02-14T01:04:35;101514.31;;;3.91;100.00
21728;BME280;11026;50.560;17.852;2023-02-14T01:07:02;101514.41;;;3.99;100.00
21728;BME280;11026;50.560;17.852;2023-02-14T01:09:30;101516.22;;;4.02;100.00
21728;BME280;11026;50.560;17.852;2023-02-14T01:11:58;101522.31;;;4.02;100.00
21728;BME280;11026;50.560;17.852;2023-02-14T01:14:27;101517.09;;;4.02;100.00
21728;BME280;11026;50.560;17.852;2023-02-14T01:16:55;101513.59;;;4.03;100.00
21728;BME280;11026;50.560;17.852;2023-02-14T01:19:28;101522.09;;;3.87;100.00
21728;BME280;11026;50.560;17.852;2023-02-14T01:21:56;101523.94;;;3.92;100.00
21728;BME280;11026;50.560;17.852;2023-02-14T01:24:23;101524.78;;;3.91;100.00
21728;BME280;11026;50.560;17.852;2023-02-14T01:26:52;101525.69;;;3.92;100.00
21728;BME280;11026;50.560;17.852;2023-02-14T01:29:20;101510.81;;;3.91;100.00
21728;BME280;11026;50.560;17.852;2023-02-14T01:31:47;101521.22;;;3.88;100.00
21728;BME280;11026;50.560;17.852;2023-02-14T01:34:15;101515.94;;;3.83;100.00
21728;BME280;11026;50.560;17.852;2023-02-14T01:36:44;101518.56;;;3.83;100.00
21728;BME280;11026;50.560;17.852;2023-02-14T01:39:13;101504.59;;;3.83;100.00
21728;BME280;11026;50.560;17.852;2023-02-14T01:41:42;101504.59;;;3.83;100.00
21728;BME280;11026;50.560;17.852;2023-02-14T01:46:45;101491.25;;;3.67;100.00
21728;BME280;11026;50.560;17.852;2023-02-14T01:49:17;101501.06;;;3.81;100.00
21728;BME280;11026;50.560;17.852;2023-02-14T01:52:19;101505.50;;;3.85;100.00
21728;BME280;11026;50.560;17.852;2023-02-14T01:55:12;101496.72;;;3.81;100.00
21728;BME280;11026;50.560;17.852;2023-02-14T01:58:04;101490.69;;;3.87;100.00
21728;BME280;11026;50.560;17.852;2023-02-14T02:03:08;101495.03;;;3.86;100.00
21728;BME280;11026;50.560;17.852;2023-02-14T02:05:40;101486.19;;;3.80;100.00
21728;BME280;11026;50.560;17.852;2023-02-14T02:08:12;101499.22;;;3.74;100.00
21728;BME280;11026;50.560;17.852;2023-02-14T02:10:39;101493.88;;;3.67;100.00
21728;BME280;11026;50.560;17.852;2023-02-14T02:13:15;101492.13;;;3.66;100.00
21728;BME280;11026;50.560;17.852;2023-02-14T02:15:58;101491.41;;;3.77;100.00
21728;BME280;11026;50.560;17.852;2023-02-14T02:18:51;101488.63;;;3.64;100.00
21728;BME280;11026;50.560;17.852;2023-02-14T02:21:52;101486.09;;;3.72;100.00
21728;BME280;11026;50.560;17.852;2023-02-14T02:31:00;101482.63;;;3.73;100.00
21728;BME280;11026;50.560;17.852;2023-02-14T02:33:24;101492.13;;;3.65;100.00
21728;BME280;11026;50.560;17.852;2023-02-14T02:36:11;101489.56;;;3.69;100.00
21728;BME280;11026;50.560;17.852;2023-02-14T02:38:54;101498.41;;;3.76;100.00
21728;BME280;11026;50.560;17.852;2023-02-14T02:44:47;101483.59;;;3.80;100.00
21728;BME280;11026;50.560;17.852;2023-02-14T02:50:04;101467.06;;;3.84;100.00
21728;BME280;11026;50.560;17.852;2023-02-14T02:53:10;101468.78;;;3.80;98.82
21728;BME280;11026;50.560;17.852;2023-02-14T02:59:02;101468.69;;;3.76;98.37
21728;BME280;11026;50.560;17.852;2023-02-14T03:01:33;101469.59;;;3.76;97.84
21728;BME280;11026;50.560;17.852;2023-02-14T03:04:08;101474.84;;;3.76;97.13
21728;BME280;11026;50.560;17.852;2023-02-14T03:06:58;101466.06;;;3.76;96.76
21728;BME280;11026;50.560;17.852;2023-02-14T03:12:18;101482.72;;;3.79;96.63
21728;BME280;11026;50.560;17.852;2023-02-14T03:15:23;101483.41;;;3.67;96.97
21728;BME280;11026;50.560;17.852;2023-02-14T03:23:29;101481.66;;;3.65;97.10
21728;BME280;11026;50.560;17.852;2023-02-14T03:28:51;101472.22;;;3.76;96.82
21728;BME280;11026;50.560;17.852;2023-02-14T03:31:27;101475.88;;;3.89;94.00
21728;BME280;11026;50.560;17.852;2023-02-14T03:34:19;101475.94;;;3.92;93.57
21728;BME280;11026;50.560;17.852;2023-02-14T03:37:01;101476.22;;;3.54;95.56
21728;BME280;11026;50.560;17.852;2023-02-14T03:42:22;101480.16;;;3.84;94.35
21728;BME280;11026;50.560;17.852;2023-02-14T03:44:53;101479.25;;;3.80;94.46
21728;BME280;11026;50.560;17.852;2023-02-14T03:47:26;101485.31;;;3.76;94.59
21728;BME280;11026;50.560;17.852;2023-02-14T03:50:03;101487.13;;;3.83;94.24
21728;BME280;11026;50.560;17.852;2023-02-14T03:52:33;101480.13;;;3.81;93.53
21728;BME280;11026;50.560;17.852;2023-02-14T03:55:06;101475.78;;;3.83;93.82
21728;BME280;11026;50.560;17.852;2023-02-14T04:00:21;101486.06;;;3.69;95.60
21728;BME280;11026;50.560;17.852;2023-02-14T04:02:53;101485.13;;;3.65;95.76
21728;BME280;11026;50.560;17.852;2023-02-14T04:05:24;101487.69;;;3.62;96.40
21728;BME280;11026;50.560;17.852;2023-02-14T04:07:56;101490.41;;;3.68;96.82
21728;BME280;11026;50.560;17.852;2023-02-14T04:10:30;101484.84;;;3.47;97.08
21728;BME280;11026;50.560;17.852;2023-02-14T04:12:58;101495.44;;;3.56;97.15
21728;BME280;11026;50.560;17.852;2023-02-14T04:15:25;101495.41;;;3.53;96.66
21728;BME280;11026;50.560;17.852;2023-02-14T04:17:54;101487.38;;;3.41;97.26
21728;BME280;11026;50.560;17.852;2023-02-14T04:20:40;101491.94;;;3.54;96.67
21728;BME280;11026;50.560;17.852;2023-02-14T04:23:07;101492.91;;;3.61;97.06
21728;BME280;11026;50.560;17.852;2023-02-14T04:25:37;101485.22;;;3.72;95.92
21728;BME280;11026;50.560;17.852;2023-02-14T04:28:06;101486.69;;;3.54;96.04
21728;BME280;11026;50.560;17.852;2023-02-14T04:30:34;101489.50;;;3.65;95.62
21728;BME280;11026;50.560;17.852;2023-02-14T04:33:03;101487.81;;;3.72;96.04
21728;BME280;11026;50.560;17.852;2023-02-14T04:35:31;101489.44;;;3.60;95.79
21728;BME280;11026;50.560;17.852;2023-02-14T04:38:00;101486.75;;;3.57;96.26
21728;BME280;11026;50.560;17.852;2023-02-14T04:40:29;101483.38;;;3.64;96.71
21728;BME280;11026;50.560;17.852;2023-02-14T04:43:00;101486.88;;;3.65;96.60
21728;BME280;11026;50.560;17.852;2023-02-14T04:45:27;101491.22;;;3.64;96.09
21728;BME280;11026;50.560;17.852;2023-02-14T04:47:55;101490.25;;;3.59;96.66
21728;BME280;11026;50.560;17.852;2023-02-14T04:50:22;101491.22;;;3.64;96.86
21728;BME280;11026;50.560;17.852;2023-02-14T04:52:52;101494.69;;;3.63;96.78
21728;BME280;11026;50.560;17.852;2023-02-14T04:55:20;101497.97;;;3.49;96.60
21728;BME280;11026;50.560;17.852;2023-02-14T04:57:48;101490.31;;;3.62;95.74
21728;BME280;11026;50.560;17.852;2023-02-14T05:00:18;101504.22;;;3.60;94.82
21728;BME280;11026;50.560;17.852;2023-02-14T05:02:45;101497.28;;;3.60;95.32
21728;BME280;11026;50.560;17.852;2023-02-14T05:05:16;101492.06;;;3.63;96.16
21728;BME280;11026;50.560;17.852;2023-02-14T05:07:50;101491.94;;;3.54;96.29
21728;BME280;11026;50.560;17.852;2023-02-14T05:10:19;101503.97;;;3.43;95.75
21728;BME280;11026;50.560;17.852;2023-02-14T05:12:47;101496.09;;;3.43;96.52
21728;BME280;11026;50.560;17.852;2023-02-14T05:15:20;101500.66;;;3.53;96.63
21728;BME280;11026;50.560;17.852;2023-02-14T05:17:48;101502.41;;;3.54;96.03
21728;BME280;11026;50.560;17.852;2023-02-14T05:20:15;101495.28;;;3.45;96.96
21728;BME280;11026;50.560;17.852;2023-02-14T05:22:44;101497.44;;;3.18;98.41
21728;BME280;11026;50.560;17.852;2023-02-14T05:25:12;101494.69;;;3.10;99.59
21728;BME280;11026;50.560;17.852;2023-02-14T05:27:40;101506.75;;;3.04;100.00
21728;BME280;11026;50.560;17.852;2023-02-14T05:30:07;101501.31;;;2.93;100.00
21728;BME280;11026;50.560;17.852;2023-02-14T05:32:36;101503.03;;;2.91;100.00
21728;BME280;11026;50.560;17.852;2023-02-14T05:35:04;101494.41;;;2.95;100.00
21728;BME280;11026;50.560;17.852;2023-02-14T05:37:32;101497.59;;;2.79;100.00
21728;BME280;11026;50.560;17.852;2023-02-14T05:39:59;101495.06;;;2.85;100.00
21728;BME280;11026;50.560;17.852;2023-02-14T05:42:28;101502.97;;;2.88;100.00
21728;BME280;11026;50.560;17.852;2023-02-14T05:44:55;101500.22;;;2.80;100.00
21728;BME280;11026;50.560;17.852;2023-02-14T05:47:23;101499.41;;;2.83;100.00
21728;BME280;11026;50.560;17.852;2023-02-14T05:49:50;101509.72;;;2.77;100.00
21728;BME280;11026;50.560;17.852;2023-02-14T05:52:20;101514.94;;;2.74;100.00
21728;BME280;11026;50.560;17.852;2023-02-14T05:54:47;101520.16;;;2.74;100.00
21728;BME280;11026;50.560;17.852;2023-02-14T05:57:15;101515.75;;;2.71;100.00
21728;BME280;11026;50.560;17.852;2023-02-14T05:59:43;101527.94;;;2.70;100.00
21728;BME280;11026;50.560;17.852;2023-02-14T06:02:17;101527.06;;;2.71;100.00
21728;BME280;11026;50.560;17.852;2023-02-14T06:04:44;101532.28;;;2.70;100.00
21728;BME280;11026;50.560;17.852;2023-02-14T06:07:18;101521.69;;;2.64;100.00
21728;BME280;11026;50.560;17.852;2023-02-14T06:09:47;101527.78;;;2.63;100.00
21728;BME280;11026;50.560;17.852;2023-02-14T06:12:15;101529.41;;;2.58;100.00
21728;BME280;11026;50.560;17.852;2023-02-14T06:14:42;101540.69;;;2.55;100.00
21728;BME280;11026;50.560;17.852;2023-02-14T06:17:11;101538.06;;;2.55;100.00
21728;BME280;11026;50.560;17.852;2023-02-14T06:19:38;101533.88;;;2.63;100.00
21728;BME280;11026;50.560;17.852;2023-02-14T06:22:06;101533.94;;;2.66;100.00
21728;BME280;11026;50.560;17.852;2023-02-14T06:24:34;101530.59;;;2.74;100.00
21728;BME280;11026;50.560;17.852;2023-02-14T06:27:04;101536.72;;;2.76;100.00
21728;BME280;11026;50.560;17.852;2023-02-14T06:29:39;101539.16;;;2.66;100.00
21728;BME280;11026;50.560;17.852;2023-02-14T06:32:08;101547.00;;;2.66;100.00
21728;BME280;11026;50.560;17.852;2023-02-14T06:34:36;101542.69;;;2.68;100.00
21728;BME280;11026;50.560;17.852;2023-02-14T06:37:06;101554.78;;;2.63;100.00
21728;BME280;11026;50.560;17.852;2023-02-14T06:39:34;101555.91;;;2.76;100.00
21728;BME280;11026;50.560;17.852;2023-02-14T06:42:03;101545.38;;;2.71;100.00
21728;BME280;11026;50.560;17.852;2023-02-14T06:44:31;101550.50;;;2.67;100.00
21728;BME280;11026;50.560;17.852;2023-02-14T06:46:59;101550.56;;;2.70;100.00
21728;BME280;11026;50.560;17.852;2023-02-14T06:49:26;101554.88;;;2.68;100.00
21728;BME280;11026;50.560;17.852;2023-02-14T06:51:54;101548.78;;;2.69;100.00
21728;BME280;11026;50.560;17.852;2023-02-14T06:54:21;101541.72;;;2.63;100.00
21728;BME280;11026;50.560;17.852;2023-02-14T06:56:49;101551.38;;;2.67;100.00
21728;BME280;11026;50.560;17.852;2023-02-14T06:59:16;101545.38;;;2.71;100.00
21728;BME280;11026;50.560;17.852;2023-02-14T07:01:43;101556.75;;;2.74;100.00
21728;BME280;11026;50.560;17.852;2023-02-14T07:04:11;101545.44;;;2.75;100.00
21728;BME280;11026;50.560;17.852;2023-02-14T07:06:40;101550.53;;;2.68;100.00
21728;BME280;11026;50.560;17.852;2023-02-14T07:09:07;101549.81;;;2.77;100.00
21728;BME280;11026;50.560;17.852;2023-02-14T07:11:35;101553.34;;;2.78;100.00
21728;BME280;11026;50.560;17.852;2023-02-14T07:14:06;101555.09;;;2.79;100.00
21728;BME280;11026;50.560;17.852;2023-02-14T07:16:35;101548.16;;;2.81;100.00
21728;BME280;11026;50.560;17.852;2023-02-14T07:19:04;101547.25;;;2.79;100.00
21728;BME280;11026;50.560;17.852;2023-02-14T07:21:32;101546.31;;;2.77;100.00
21728;BME280;11026;50.560;17.852;2023-02-14T07:23:59;101548.03;;;2.75;100.00
21728;BME280;11026;50.560;17.852;2023-02-14T07:26:27;101548.34;;;2.90;100.00
21728;BME280;11026;50.560;17.852;2023-02-14T07:28:54;101541.34;;;2.89;100.00
21728;BME280;11026;50.560;17.852;2023-02-14T07:31:23;101545.78;;;2.93;100.00
21728;BME280;11026;50.560;17.852;2023-02-14T07:33:51;101546.63;;;2.90;100.00
21728;BME280;11026;50.560;17.852;2023-02-14T07:36:19;101540.66;;;2.98;100.00
21728;BME280;11026;50.560;17.852;2023-02-14T07:38:47;101544.94;;;2.94;100.00
21728;BME280;11026;50.560;17.852;2023-02-14T07:41:15;101545.81;;;2.94;100.00
21728;BME280;11026;50.560;17.852;2023-02-14T07:43:42;101557.31;;;3.03;100.00
21728;BME280;11026;50.560;17.852;2023-02-14T07:46:11;101543.34;;;3.02;100.00
21728;BME280;11026;50.560;17.852;2023-02-14T07:48:39;101555.59;;;3.05;100.00
21728;BME280;11026;50.560;17.852;2023-02-14T07:51:07;101552.28;;;3.13;100.00
21728;BME280;11026;50.560;17.852;2023-02-14T07:53:34;101557.50;;;3.13;100.00
21728;BME280;11026;50.560;17.852;2023-02-14T07:56:02;101558.25;;;3.08;100.00
21728;BME280;11026;50.560;17.852;2023-02-14T07:58:29;101557.53;;;3.16;100.00
21728;BME280;11026;50.560;17.852;2023-02-14T08:00:58;101549.69;;;3.15;100.00
21728;BME280;11026;50.560;17.852;2023-02-14T08:03:25;101562.78;;;3.16;100.00
21728;BME280;11026;50.560;17.852;2023-02-14T08:05:53;101561.03;;;3.15;100.00
21728;BME280;11026;50.560;17.852;2023-02-14T08:08:26;101566.38;;;3.22;100.00
21728;BME280;11026;50.560;17.852;2023-02-14T08:10:54;101569.72;;;3.14;100.00
21728;BME280;11026;50.560;17.852;2023-02-14T08:13:22;101569.72;;;3.14;100.00
21728;BME280;11026;50.560;17.852;2023-02-14T08:15:51;101572.50;;;3.24;100.00
21728;BME280;11026;50.560;17.852;2023-02-14T08:18:39;101573.31;;;3.19;100.00
21728;BME280;11026;50.560;17.852;2023-02-14T08:21:09;101579.69;;;3.34;100.00
21728;BME280;11026;50.560;17.852;2023-02-14T08:23:37;101584.00;;;3.32;100.00
21728;BME280;11026;50.560;17.852;2023-02-14T08:26:05;101578.75;;;3.32;100.00
21728;BME280;11026;50.560;17.852;2023-02-14T08:28:32;101578.94;;;3.41;100.00
21728;BME280;11026;50.560;17.852;2023-02-14T08:31:08;101585.06;;;3.41;100.00
21728;BME280;11026;50.560;17.852;2023-02-14T08:33:36;101583.09;;;3.30;100.00
21728;BME280;11026;50.560;17.852;2023-02-14T08:36:04;101585.78;;;3.33;100.00
21728;BME280;11026;50.560;17.852;2023-02-14T08:38:32;101575.34;;;3.36;100.00
21728;BME280;11026;50.560;17.852;2023-02-14T08:41:00;101576.34;;;3.42;100.00
21728;BME280;11026;50.560;17.852;2023-02-14T08:43:33;101585.94;;;3.42;100.00
21728;BME280;11026;50.560;17.852;2023-02-14T08:46:00;101578.19;;;3.48;100.00
21728;BME280;11026;50.560;17.852;2023-02-14T08:48:28;101586.16;;;3.54;100.00
21728;BME280;11026;50.560;17.852;2023-02-14T08:50:57;101580.03;;;3.54;100.00
21728;BME280;11026;50.560;17.852;2023-02-14T08:53:25;101583.69;;;3.63;100.00
21728;BME280;11026;50.560;17.852;2023-02-14T08:55:53;101589.78;;;3.62;100.00
21728;BME280;11026;50.560;17.852;2023-02-14T08:58:21;101588.09;;;3.64;100.00
21728;BME280;11026;50.560;17.852;2023-02-14T09:00:49;101584.53;;;3.62;100.00
21728;BME280;11026;50.560;17.852;2023-02-14T09:03:16;101582.13;;;3.73;100.00
21728;BME280;11026;50.560;17.852;2023-02-14T09:05:44;101585.66;;;3.77;99.40
21728;BME280;11026;50.560;17.852;2023-02-14T09:08:11;101572.59;;;3.80;99.96
21728;BME280;11026;50.560;17.852;2023-02-14T09:10:39;101585.09;;;3.96;99.71
21728;BME280;11026;50.560;17.852;2023-02-14T09:13:07;101581.63;;;3.97;97.37
21728;BME280;11026;50.560;17.852;2023-02-14T09:15:34;101588.81;;;4.10;97.03
21728;BME280;11026;50.560;17.852;2023-02-14T09:18:03;101587.00;;;4.08;96.42
21728;BME280;11026;50.560;17.852;2023-02-14T09:20:30;101591.59;;;4.23;95.43
21728;BME280;11026;50.560;17.852;2023-02-14T09:22:58;101589.59;;;4.05;94.92
21728;BME280;11026;50.560;17.852;2023-02-14T09:25:25;101572.31;;;4.16;96.67
21728;BME280;11026;50.560;17.852;2023-02-14T09:27:53;101586.25;;;4.13;94.90
21728;BME280;11026;50.560;17.852;2023-02-14T09:30:21;101585.59;;;4.30;94.74
21728;BME280;11026;50.560;17.852;2023-02-14T09:32:52;101590.00;;;4.32;95.24
21728;BME280;11026;50.560;17.852;2023-02-14T09:35:20;101593.47;;;4.31;94.28
21728;BME280;11026;50.560;17.852;2023-02-14T09:38:08;101587.56;;;4.46;93.99
21728;BME280;11026;50.560;17.852;2023-02-14T09:40:45;101591.59;;;4.23;93.33
21728;BME280;11026;50.560;17.852;2023-02-14T09:43:30;101601.44;;;4.36;93.85
21728;BME280;11026;50.560;17.852;2023-02-14T09:46:03;101596.47;;;4.57;92.92
21728;BME280;11026;50.560;17.852;2023-02-14T09:48:36;101598.00;;;4.41;92.64
21728;BME280;11026;50.560;17.852;2023-02-14T09:51:09;101594.56;;;4.47;92.77
21728;BME280;11026;50.560;17.852;2023-02-14T09:53:51;101606.06;;;4.57;92.67
21728;BME280;11026;50.560;17.852;2023-02-14T09:56:28;101606.03;;;4.54;91.52
21728;BME280;11026;50.560;17.852;2023-02-14T10:02:21;101599.19;;;4.63;91.46
21728;BME280;11026;50.560;17.852;2023-02-14T10:07:47;101605.25;;;4.61;90.00
21728;BME280;11026;50.560;17.852;2023-02-14T10:15:27;101609.59;;;4.59;89.81
21728;BME280;11026;50.560;17.852;2023-02-14T10:18:17;101608.13;;;4.79;90.03
21728;BME280;11026;50.560;17.852;2023-02-14T10:20:52;101612.56;;;4.85;90.27
21728;BME280;11026;50.560;17.852;2023-02-14T10:23:40;101601.97;;;4.79;89.06
21728;BME280;11026;50.560;17.852;2023-02-14T10:26:15;101598.44;;;4.74;90.08
21728;BME280;11026;50.560;17.852;2023-02-14T10:28:48;101590.84;;;4.95;89.77
21728;BME280;11026;50.560;17.852;2023-02-14T10:33:56;101580.25;;;4.87;88.26
21728;BME280;11026;50.560;17.852;2023-02-14T10:39:49;101593.66;;;5.13;87.36
21728;BME280;11026;50.560;17.852;2023-02-14T10:42:45;101586.78;;;5.25;86.43
21728;BME280;11026;50.560;17.852;2023-02-14T10:45:34;101594.53;;;5.14;86.06
21728;BME280;11026;50.560;17.852;2023-02-14T10:51:09;101583.16;;;5.13;85.74
21728;BME280;11026;50.560;17.852;2023-02-14T10:56:35;101580.09;;;5.56;84.83
21728;BME280;11026;50.560;17.852;2023-02-14T11:01:51;101573.13;;;5.59;84.16
21728;BME280;11026;50.560;17.852;2023-02-14T11:04:23;101579.25;;;5.58;83.95
21728;BME280;11026;50.560;17.852;2023-02-14T11:06:51;101573.84;;;5.43;85.26
21728;BME280;11026;50.560;17.852;2023-02-14T11:09:19;101569.31;;;5.27;85.70
21728;BME280;11026;50.560;17.852;2023-02-14T11:11:54;101569.38;;;5.33;85.15
21728;BME280;11026;50.560;17.852;2023-02-14T11:14:26;101568.38;;;5.20;86.69
21728;BME280;11026;50.560;17.852;2023-02-14T11:16:57;101577.41;;;5.48;85.10
21728;BME280;11026;50.560;17.852;2023-02-14T11:19:31;101569.41;;;5.37;84.93
21728;BME280;11026;50.560;17.852;2023-02-14T11:22:03;101565.59;;;5.06;85.56
21728;BME280;11026;50.560;17.852;2023-02-14T11:24:39;101554.63;;;5.47;86.61
21728;BME280;11026;50.560;17.852;2023-02-14T11:29:42;101562.50;;;5.47;85.74
21728;BME280;11026;50.560;17.852;2023-02-14T11:32:25;101544.47;;;5.87;83.87
21728;BME280;11026;50.560;17.852;2023-02-14T11:37:32;101554.94;;;5.82;82.31
21728;BME280;11026;50.560;17.852;2023-02-14T11:40:05;101559.44;;;5.94;82.04
21728;BME280;11026;50.560;17.852;2023-02-14T11:42:44;101554.03;;;5.79;82.76
21728;BME280;11026;50.560;17.852;2023-02-14T11:51:12;101540.81;;;5.70;83.11
21728;BME280;11026;50.560;17.852;2023-02-14T11:53:53;101541.94;;;5.96;83.57
21728;BME280;11026;50.560;17.852;2023-02-14T11:56:22;101534.13;;;6.07;81.39
21728;BME280;11026;50.560;17.852;2023-02-14T11:58:58;101528.03;;;6.14;80.79
21728;BME280;11026;50.560;17.852;2023-02-14T12:01:34;101533.31;;;6.19;80.76
21728;BME280;11026;50.560;17.852;2023-02-14T12:04:16;101524.44;;;5.98;79.56
21728;BME280;11026;50.560;17.852;2023-02-14T12:06:46;101520.09;;;6.06;79.36
21728;BME280;11026;50.560;17.852;2023-02-14T12:09:26;101527.16;;;6.15;80.12
21728;BME280;11026;50.560;17.852;2023-02-14T12:12:14;101526.38;;;6.31;80.26
21728;BME280;11026;50.560;17.852;2023-02-14T12:14:42;101515.03;;;6.45;78.68
21728;BME280;11026;50.560;17.852;2023-02-14T12:17:28;101521.16;;;6.39;78.33
21728;BME280;11026;50.560;17.852;2023-02-14T12:19:59;101528.13;;;6.31;78.65
21728;BME280;11026;50.560;17.852;2023-02-14T12:22:53;101519.25;;;6.10;78.16
21728;BME280;11026;50.560;17.852;2023-02-14T12:25:50;101522.00;;;6.30;77.79
21728;BME280;11026;50.560;17.852;2023-02-14T12:28:48;101512.34;;;6.28;77.52
21728;BME280;11026;50.560;17.852;2023-02-14T12:31:17;101505.44;;;6.51;77.00
21728;BME280;11026;50.560;17.852;2023-02-14T12:33:45;101503.69;;;6.56;76.77
21728;BME280;11026;50.560;17.852;2023-02-14T12:36:53;101501.94;;;6.57;77.37
21728;BME280;11026;50.560;17.852;2023-02-14T12:39:54;101494.09;;;6.71;77.33
21728;BME280;11026;50.560;17.852;2023-02-14T12:42:35;101505.50;;;6.67;77.18
21728;BME280;11026;50.560;17.852;2023-02-14T12:48:08;101480.94;;;6.61;76.05
21728;BME280;11026;50.560;17.852;2023-02-14T12:50:59;101490.53;;;6.56;76.82
21728;BME280;11026;50.560;17.852;2023-02-14T13:08:22;101485.00;;;5.97;79.57
21728;BME280;11026;50.560;17.852;2023-02-14T13:16:21;101483.44;;;6.35;78.09
21728;BME280;11026;50.560;17.852;2023-02-14T13:21:29;101475.44;;;6.06;77.95
21728;BME280;11026;50.560;17.852;2023-02-14T13:24:19;101470.28;;;6.26;77.90
21728;BME280;11026;50.560;17.852;2023-02-14T13:26:51;101471.16;;;6.28;78.32
21728;BME280;11026;50.560;17.852;2023-02-14T13:29:26;101470.31;;;6.35;76.82
21728;BME280;11026;50.560;17.852;2023-02-14T13:31:57;101475.41;;;5.99;78.94
21728;BME280;11026;50.560;17.852;2023-02-14T13:34:38;101471.75;;;5.80;78.79
21728;BME280;11026;50.560;17.852;2023-02-14T13:37:12;101460.38;;;5.82;78.31
21728;BME280;11026;50.560;17.852;2023-02-14T13:39:45;101471.94;;;6.07;77.63
21728;BME280;11026;50.560;17.852;2023-02-14T13:50:48;101457.91;;;6.02;74.82
21728;BME280;11026;50.560;17.852;2023-02-14T13:59:00;101461.34;;;5.92;77.86
21728;BME280;11026;50.560;17.852;2023-02-14T14:17:36;101473.59;;;5.93;76.48
21728;BME280;11026;50.560;17.852;2023-02-14T14:23:00;101470.06;;;5.91;76.43
21728;BME280;11026;50.560;17.852;2023-02-14T14:25:39;101473.44;;;5.73;77.75
21728;BME280;11026;50.560;17.852;2023-02-14T14:28:19;101470.84;;;5.81;78.32
21728;BME280;11026;50.560;17.852;2023-02-14T14:30:48;101471.75;;;5.83;79.22
21728;BME280;11026;50.560;17.852;2023-02-14T14:33:24;101474.41;;;5.87;78.63
21728;BME280;11026;50.560;17.852;2023-02-14T14:36:04;101475.28;;;5.86;77.79
21728;BME280;11026;50.560;17.852;2023-02-14T14:38:45;101474.47;;;5.92;77.56
21728;BME280;11026;50.560;17.852;2023-02-14T14:41:14;101478.78;;;5.82;77.88
21728;BME280;11026;50.560;17.852;2023-02-14T14:43:42;101476.19;;;5.90;77.55
21728;BME280;11026;50.560;17.852;2023-02-14T14:46:12;101475.22;;;5.76;76.96
21728;BME280;11026;50.560;17.852;2023-02-14T14:48:43;101476.97;;;5.77;76.58
21728;BME280;11026;50.560;17.852;2023-02-14T14:51:30;101478.38;;;5.32;77.49
21728;BME280;11026;50.560;17.852;2023-02-14T14:54:01;101470.63;;;5.49;79.65
21728;BME280;11026;50.560;17.852;2023-02-14T14:56:35;101466.34;;;5.58;79.36
21728;BME280;11026;50.560;17.852;2023-02-14T14:59:29;101471.41;;;5.37;78.31
21728;BME280;11026;50.560;17.852;2023-02-14T15:01:58;101478.34;;;5.29;79.45
21728;BME280;11026;50.560;17.852;2023-02-14T15:04:33;101468.03;;;5.53;79.15
21728;BME280;11026;50.560;17.852;2023-02-14T15:07:24;101465.38;;;5.50;79.31
21728;BME280;11026;50.560;17.852;2023-02-14T15:09:56;101465.44;;;5.56;78.34
21728;BME280;11026;50.560;17.852;2023-02-14T15:12:25;101455.91;;;5.69;77.86
21728;BME280;11026;50.560;17.852;2023-02-14T15:15:14;101463.69;;;5.55;77.95
21728;BME280;11026;50.560;17.852;2023-02-14T15:17:43;101467.06;;;5.39;79.52
21728;BME280;11026;50.560;17.852;2023-02-14T15:20:21;101464.22;;;5.14;80.74
21728;BME280;11026;50.560;17.852;2023-02-14T15:22:51;101464.19;;;5.08;81.44
21728;BME280;11026;50.560;17.852;2023-02-14T15:27:52;101458.63;;;4.78;82.24
21728;BME280;11026;50.560;17.852;2023-02-14T15:30:25;101463.00;;;4.76;83.87